sensor_id;sensor_type;location;lat;lon;timestamp;P1;durP1;ratioP1;P2;durP2;ratioP2
56073;SDS011;41950;55.840;37.442;2023-03-19T00:01:57;2.40;;;1.08;;
56073;SDS011;41950;55.840;37.442;2023-03-19T00:04:23;2.67;;;1.25;;
56073;SDS011;41950;55.840;37.442;2023-03-19T00:06:50;3.67;;;1.60;;
56073;SDS011;41950;55.840;37.442;2023-03-19T00:09:16;3.67;;;1.60;;
56073;SDS011;41950;55.840;37.442;2023-03-19T00:11:43;3.05;;;1.52;;
56073;SDS011;41950;55.840;37.442;2023-03-19T00:14:09;3.25;;;1.30;;
56073;SDS011;41950;55.840;37.442;2023-03-19T00:16:35;3.92;;;1.30;;
56073;SDS011;41950;55.840;37.442;2023-03-19T00:19:01;3.78;;;1.50;;
56073;SDS011;41950;55.840;37.442;2023-03-19T00:21:28;4.60;;;1.73;;
56073;SDS011;41950;55.840;37.442;2023-03-19T00:23:55;2.88;;;1.40;;
56073;SDS011;41950;55.840;37.442;2023-03-19T00:26:27;3.60;;;1.50;;
56073;SDS011;41950;55.840;37.442;2023-03-19T00:28:53;3.20;;;1.67;;
56073;SDS011;41950;55.840;37.442;2023-03-19T00:31:20;3.30;;;1.50;;
56073;SDS011;41950;55.840;37.442;2023-03-19T00:33:46;3.92;;;1.67;;
56073;SDS011;41950;55.840;37.442;2023-03-19T00:36:12;3.28;;;1.45;;
56073;SDS011;41950;55.840;37.442;2023-03-19T00:38:38;3.05;;;1.30;;
56073;SDS011;41950;55.840;37.442;2023-03-19T00:41:04;3.55;;;1.55;;
56073;SDS011;41950;55.840;37.442;2023-03-19T00:43:31;4.18;;;1.60;;
56073;SDS011;41950;55.840;37.442;2023-03-19T00:45:57;3.30;;;1.55;;
56073;SDS011;41950;55.840;37.442;2023-03-19T00:48:23;4.97;;;1.80;;
56073;SDS011;41950;55.840;37.442;2023-03-19T00:50:49;4.38;;;1.70;;
56073;SDS011;41950;55.840;37.442;2023-03-19T00:53:15;4.05;;;1.60;;
56073;SDS011;41950;55.840;37.442;2023-03-19T00:55:41;3.65;;;1.65;;
56073;SDS011;41950;55.840;37.442;2023-03-19T00:58:07;2.97;;;1.48;;
56073;SDS011;41950;55.840;37.442;2023-03-19T01:00:34;4.97;;;1.80;;
56073;SDS011;41950;55.840;37.442;2023-03-19T01:03:01;4.47;;;1.73;;
56073;SDS011;41950;55.840;37.442;2023-03-19T01:05:28;6.10;;;1.90;;
56073;SDS011;41950;55.840;37.442;2023-03-19T01:07:54;3.63;;;1.73;;
56073;SDS011;41950;55.840;37.442;2023-03-19T01:10:20;4.32;;;1.73;;
56073;SDS011;41950;55.840;37.442;2023-03-19T01:12:47;3.42;;;1.40;;
56073;SDS011;41950;55.840;37.442;2023-03-19T01:15:13;4.70;;;1.50;;
56073;SDS011;41950;55.840;37.442;2023-03-19T01:17:39;3.55;;;1.52;;
56073;SDS011;41950;55.840;37.442;2023-03-19T01:20:06;2.97;;;1.50;;
56073;SDS011;41950;55.840;37.442;2023-03-19T01:22:40;3.22;;;1.38;;
56073;SDS011;41950;55.840;37.442;2023-03-19T01:25:07;3.17;;;1.17;;
56073;SDS011;41950;55.840;37.442;2023-03-19T01:27:33;4.63;;;1.73;;
56073;SDS011;41950;55.840;37.442;2023-03-19T01:29:59;3.65;;;1.75;;
56073;SDS011;41950;55.840;37.442;2023-03-19T01:32:24;4.03;;;1.70;;
56073;SDS011;41950;55.840;37.442;2023-03-19T01:34:50;3.10;;;1.50;;
56073;SDS011;41950;55.840;37.442;2023-03-19T01:37:17;3.70;;;1.42;;
56073;SDS011;41950;55.840;37.442;2023-03-19T01:39:44;3.38;;;1.70;;
56073;SDS011;41950;55.840;37.442;2023-03-19T01:42:10;4.18;;;1.60;;
56073;SDS011;41950;55.840;37.442;2023-03-19T01:44:37;3.22;;;1.55;;
56073;SDS011;41950;55.840;37.442;2023-03-19T01:47:05;4.22;;;1.55;;
56073;SDS011;41950;55.840;37.442;2023-03-19T01:49:41;4.43;;;1.80;;
56073;SDS011;41950;55.840;37.442;2023-03-19T01:52:09;3.55;;;1.80;;
56073;SDS011;41950;55.840;37.442;2023-03-19T01:54:37;3.92;;;2.00;;
56073;SDS011;41950;55.840;37.442;2023-03-19T01:57:06;5.60;;;2.15;;
56073;SDS011;41950;55.840;37.442;2023-03-19T01:59:36;3.53;;;2.00;;
56073;SDS011;41950;55.840;37.442;2023-03-19T02:02:28;4.57;;;1.95;;
56073;SDS011;41950;55.840;37.442;2023-03-19T02:04:57;3.80;;;1.70;;
56073;SDS011;41950;55.840;37.442;2023-03-19T02:07:36;4.28;;;2.10;;
56073;SDS011;41950;55.840;37.442;2023-03-19T02:10:10;3.88;;;1.95;;
56073;SDS011;41950;55.840;37.442;2023-03-19T02:12:38;5.75;;;1.95;;
56073;SDS011;41950;55.840;37.442;2023-03-19T02:15:04;4.38;;;2.17;;
56073;SDS011;41950;55.840;37.442;2023-03-19T02:17:32;5.38;;;2.47;;
56073;SDS011;41950;55.840;37.442;2023-03-19T02:22:29;5.32;;;2.33;;
56073;SDS011;41950;55.840;37.442;2023-03-19T02:24:58;3.97;;;2.10;;
56073;SDS011;41950;55.840;37.442;2023-03-19T02:27:30;4.03;;;2.00;;
56073;SDS011;41950;55.840;37.442;2023-03-19T02:29:56;3.45;;;1.88;;
56073;SDS011;41950;55.840;37.442;2023-03-19T02:32:22;4.80;;;2.22;;
56073;SDS011;41950;55.840;37.442;2023-03-19T02:34:47;5.25;;;2.55;;
56073;SDS011;41950;55.840;37.442;2023-03-19T02:37:18;5.45;;;2.03;;
56073;SDS011;41950;55.840;37.442;2023-03-19T02:40:01;4.85;;;2.00;;
56073;SDS011;41950;55.840;37.442;2023-03-19T02:42:32;4.85;;;1.80;;
56073;SDS011;41950;55.840;37.442;2023-03-19T02:44:58;5.20;;;2.05;;
56073;SDS011;41950;55.840;37.442;2023-03-19T02:47:24;5.40;;;2.40;;
56073;SDS011;41950;55.840;37.442;2023-03-19T02:49:50;7.22;;;2.33;;
56073;SDS011;41950;55.840;37.442;2023-03-19T02:52:16;4.10;;;1.90;;
56073;SDS011;41950;55.840;37.442;2023-03-19T02:54:42;3.88;;;1.95;;
56073;SDS011;41950;55.840;37.442;2023-03-19T02:57:08;4.47;;;2.17;;
56073;SDS011;41950;55.840;37.442;2023-03-19T02:59:34;4.65;;;2.28;;
56073;SDS011;41950;55.840;37.442;2023-03-19T03:02:00;4.13;;;1.98;;
56073;SDS011;41950;55.840;37.442;2023-03-19T03:04:25;5.63;;;2.22;;
56073;SDS011;41950;55.840;37.442;2023-03-19T03:06:51;5.20;;;2.40;;
56073;SDS011;41950;55.840;37.442;2023-03-19T03:09:17;5.03;;;2.05;;
56073;SDS011;41950;55.840;37.442;2023-03-19T03:11:43;4.93;;;2.10;;
56073;SDS011;41950;55.840;37.442;2023-03-19T03:14:09;5.10;;;2.17;;
56073;SDS011;41950;55.840;37.442;2023-03-19T03:16:35;4.78;;;2.30;;
56073;SDS011;41950;55.840;37.442;2023-03-19T03:19:02;3.90;;;2.22;;
56073;SDS011;41950;55.840;37.442;2023-03-19T03:21:28;4.38;;;2.30;;
56073;SDS011;41950;55.840;37.442;2023-03-19T03:23:54;4.32;;;2.08;;
56073;SDS011;41950;55.840;37.442;2023-03-19T03:26:20;4.35;;;2.05;;
56073;SDS011;41950;55.840;37.442;2023-03-19T03:28:46;4.22;;;2.10;;
56073;SDS011;41950;55.840;37.442;2023-03-19T03:31:12;5.03;;;2.30;;
56073;SDS011;41950;55.840;37.442;2023-03-19T03:33:38;4.95;;;2.30;;
56073;SDS011;41950;55.840;37.442;2023-03-19T03:36:05;4.40;;;2.25;;
56073;SDS011;41950;55.840;37.442;2023-03-19T03:38:31;6.32;;;2.45;;
56073;SDS011;41950;55.840;37.442;2023-03-19T03:40:57;6.20;;;2.53;;
56073;SDS011;41950;55.840;37.442;2023-03-19T03:43:23;4.68;;;2.40;;
56073;SDS011;41950;55.840;37.442;2023-03-19T03:45:49;5.00;;;2.17;;
56073;SDS011;41950;55.840;37.442;2023-03-19T03:48:16;5.90;;;2.20;;
56073;SDS011;41950;55.840;37.442;2023-03-19T03:50:42;5.88;;;2.50;;
56073;SDS011;41950;55.840;37.442;2023-03-19T03:53:09;6.68;;;2.22;;
56073;SDS011;41950;55.840;37.442;2023-03-19T03:55:36;4.35;;;2.05;;
56073;SDS011;41950;55.840;37.442;2023-03-19T03:58:02;3.85;;;1.90;;
56073;SDS011;41950;55.840;37.442;2023-03-19T04:00:28;5.70;;;2.10;;
56073;SDS011;41950;55.840;37.442;2023-03-19T04:02:54;3.95;;;2.30;;
56073;SDS011;41950;55.840;37.442;2023-03-19T04:05:20;4.00;;;2.22;;
56073;SDS011;41950;55.840;37.442;2023-03-19T04:07:46;4.40;;;2.20;;
56073;SDS011;41950;55.840;37.442;2023-03-19T04:10:12;5.85;;;1.90;;
56073;SDS011;41950;55.840;37.442;2023-03-19T04:12:39;3.92;;;1.85;;
56073;SDS011;41950;55.840;37.442;2023-03-19T04:15:06;6.45;;;2.22;;
56073;SDS011;41950;55.840;37.442;2023-03-19T04:17:35;3.80;;;1.98;;
56073;SDS011;41950;55.840;37.442;2023-03-19T04:20:01;4.00;;;2.10;;
56073;SDS011;41950;55.840;37.442;2023-03-19T04:22:28;5.10;;;2.60;;
56073;SDS011;41950;55.840;37.442;2023-03-19T04:24:54;5.53;;;2.13;;
56073;SDS011;41950;55.840;37.442;2023-03-19T04:27:19;4.13;;;2.08;;
56073;SDS011;41950;55.840;37.442;2023-03-19T04:29:45;5.05;;;2.05;;
56073;SDS011;41950;55.840;37.442;2023-03-19T04:32:11;4.55;;;2.25;;
56073;SDS011;41950;55.840;37.442;2023-03-19T04:34:36;5.57;;;2.50;;
56073;SDS011;41950;55.840;37.442;2023-03-19T04:37:02;4.70;;;2.33;;
56073;SDS011;41950;55.840;37.442;2023-03-19T04:39:28;6.20;;;2.75;;
56073;SDS011;41950;55.840;37.442;2023-03-19T04:41:53;15.15;;;2.83;;
56073;SDS011;41950;55.840;37.442;2023-03-19T04:44:19;5.40;;;3.05;;
56073;SDS011;41950;55.840;37.442;2023-03-19T04:46:46;7.03;;;2.55;;
56073;SDS011;41950;55.840;37.442;2023-03-19T04:49:11;6.60;;;2.67;;
56073;SDS011;41950;55.840;37.442;2023-03-19T04:51:37;5.47;;;2.40;;
56073;SDS011;41950;55.840;37.442;2023-03-19T04:54:03;4.63;;;2.50;;
56073;SDS011;41950;55.840;37.442;2023-03-19T04:56:30;5.32;;;2.60;;
56073;SDS011;41950;55.840;37.442;2023-03-19T04:58:56;5.43;;;3.17;;
56073;SDS011;41950;55.840;37.442;2023-03-19T05:01:22;6.57;;;2.75;;
56073;SDS011;41950;55.840;37.442;2023-03-19T05:03:48;5.38;;;2.97;;
56073;SDS011;41950;55.840;37.442;2023-03-19T05:06:14;6.47;;;3.15;;
56073;SDS011;41950;55.840;37.442;2023-03-19T05:08:41;5.45;;;2.50;;
56073;SDS011;41950;55.840;37.442;2023-03-19T05:11:07;6.25;;;2.72;;
56073;SDS011;41950;55.840;37.442;2023-03-19T05:13:33;5.28;;;2.50;;
56073;SDS011;41950;55.840;37.442;2023-03-19T05:15:59;4.45;;;2.10;;
56073;SDS011;41950;55.840;37.442;2023-03-19T05:18:25;3.33;;;2.13;;
56073;SDS011;41950;55.840;37.442;2023-03-19T05:20:51;6.35;;;2.28;;
56073;SDS011;41950;55.840;37.442;2023-03-19T05:23:18;5.25;;;2.40;;
56073;SDS011;41950;55.840;37.442;2023-03-19T05:25:45;5.38;;;2.72;;
56073;SDS011;41950;55.840;37.442;2023-03-19T05:28:11;4.93;;;2.35;;
56073;SDS011;41950;55.840;37.442;2023-03-19T05:30:38;6.22;;;2.40;;
56073;SDS011;41950;55.840;37.442;2023-03-19T05:33:03;5.65;;;2.50;;
56073;SDS011;41950;55.840;37.442;2023-03-19T05:35:29;7.60;;;2.67;;
56073;SDS011;41950;55.840;37.442;2023-03-19T05:37:55;4.95;;;2.67;;
56073;SDS011;41950;55.840;37.442;2023-03-19T05:40:21;5.05;;;2.50;;
56073;SDS011;41950;55.840;37.442;2023-03-19T05:42:48;4.72;;;2.50;;
56073;SDS011;41950;55.840;37.442;2023-03-19T05:45:14;5.25;;;2.50;;
56073;SDS011;41950;55.840;37.442;2023-03-19T05:47:41;4.13;;;2.47;;
56073;SDS011;41950;55.840;37.442;2023-03-19T05:50:09;4.10;;;2.40;;
56073;SDS011;41950;55.840;37.442;2023-03-19T05:52:36;4.80;;;2.45;;
56073;SDS011;41950;55.840;37.442;2023-03-19T05:55:02;7.68;;;2.58;;
56073;SDS011;41950;55.840;37.442;2023-03-19T05:57:29;5.15;;;2.67;;
56073;SDS011;41950;55.840;37.442;2023-03-19T05:59:54;4.38;;;2.45;;
56073;SDS011;41950;55.840;37.442;2023-03-19T06:02:20;4.60;;;2.28;;
56073;SDS011;41950;55.840;37.442;2023-03-19T06:04:46;5.47;;;2.35;;
56073;SDS011;41950;55.840;37.442;2023-03-19T06:07:12;4.03;;;2.60;;
56073;SDS011;41950;55.840;37.442;2023-03-19T06:09:38;4.25;;;2.38;;
56073;SDS011;41950;55.840;37.442;2023-03-19T06:12:05;4.70;;;2.03;;
56073;SDS011;41950;55.840;37.442;2023-03-19T06:14:32;6.72;;;2.60;;
56073;SDS011;41950;55.840;37.442;2023-03-19T06:16:58;6.88;;;2.75;;
56073;SDS011;41950;55.840;37.442;2023-03-19T06:19:23;4.57;;;2.33;;
56073;SDS011;41950;55.840;37.442;2023-03-19T06:21:50;5.38;;;2.70;;
56073;SDS011;41950;55.840;37.442;2023-03-19T06:24:16;5.45;;;2.42;;
56073;SDS011;41950;55.840;37.442;2023-03-19T06:26:42;3.75;;;2.22;;
56073;SDS011;41950;55.840;37.442;2023-03-19T06:29:08;5.78;;;2.47;;
56073;SDS011;41950;55.840;37.442;2023-03-19T06:31:34;5.72;;;2.55;;
56073;SDS011;41950;55.840;37.442;2023-03-19T06:34:05;5.28;;;2.60;;
56073;SDS011;41950;55.840;37.442;2023-03-19T06:36:31;5.25;;;2.75;;
56073;SDS011;41950;55.840;37.442;2023-03-19T06:38:57;5.45;;;2.90;;
56073;SDS011;41950;55.840;37.442;2023-03-19T06:41:23;4.53;;;2.30;;
56073;SDS011;41950;55.840;37.442;2023-03-19T06:43:51;4.53;;;2.65;;
56073;SDS011;41950;55.840;37.442;2023-03-19T06:46:17;5.40;;;2.35;;
56073;SDS011;41950;55.840;37.442;2023-03-19T06:48:43;4.60;;;2.70;;
56073;SDS011;41950;55.840;37.442;2023-03-19T06:51:08;5.78;;;2.40;;
56073;SDS011;41950;55.840;37.442;2023-03-19T06:53:36;6.38;;;2.33;;
56073;SDS011;41950;55.840;37.442;2023-03-19T06:56:02;4.50;;;2.63;;
56073;SDS011;41950;55.840;37.442;2023-03-19T06:58:28;5.05;;;2.47;;
56073;SDS011;41950;55.840;37.442;2023-03-19T07:00:53;5.20;;;2.58;;
56073;SDS011;41950;55.840;37.442;2023-03-19T07:03:19;5.60;;;3.03;;
56073;SDS011;41950;55.840;37.442;2023-03-19T07:05:47;5.05;;;2.50;;
56073;SDS011;41950;55.840;37.442;2023-03-19T07:08:14;4.63;;;2.65;;
56073;SDS011;41950;55.840;37.442;2023-03-19T07:10:40;4.07;;;2.55;;
56073;SDS011;41950;55.840;37.442;2023-03-19T07:13:06;5.00;;;2.50;;
56073;SDS011;41950;55.840;37.442;2023-03-19T07:15:32;5.55;;;2.75;;
56073;SDS011;41950;55.840;37.442;2023-03-19T07:17:57;4.38;;;2.60;;
56073;SDS011;41950;55.840;37.442;2023-03-19T07:20:23;5.00;;;2.40;;
56073;SDS011;41950;55.840;37.442;2023-03-19T07:22:49;5.38;;;2.78;;
56073;SDS011;41950;55.840;37.442;2023-03-19T07:25:15;4.30;;;2.45;;
56073;SDS011;41950;55.840;37.442;2023-03-19T07:27:41;4.38;;;2.22;;
56073;SDS011;41950;55.840;37.442;2023-03-19T07:30:07;4.43;;;2.80;;
56073;SDS011;41950;55.840;37.442;2023-03-19T07:32:34;5.53;;;2.50;;
56073;SDS011;41950;55.840;37.442;2023-03-19T07:35:00;4.68;;;2.70;;
56073;SDS011;41950;55.840;37.442;2023-03-19T07:37:26;5.15;;;2.70;;
56073;SDS011;41950;55.840;37.442;2023-03-19T07:39:51;5.25;;;2.30;;
56073;SDS011;41950;55.840;37.442;2023-03-19T07:42:17;5.85;;;2.50;;
56073;SDS011;41950;55.840;37.442;2023-03-19T07:44:43;3.70;;;2.13;;
56073;SDS011;41950;55.840;37.442;2023-03-19T07:47:08;6.28;;;3.03;;
56073;SDS011;41950;55.840;37.442;2023-03-19T07:49:34;4.05;;;2.10;;
56073;SDS011;41950;55.840;37.442;2023-03-19T07:52:00;4.40;;;2.35;;
56073;SDS011;41950;55.840;37.442;2023-03-19T07:54:26;3.95;;;2.47;;
56073;SDS011;41950;55.840;37.442;2023-03-19T07:56:51;4.38;;;2.42;;
56073;SDS011;41950;55.840;37.442;2023-03-19T07:59:17;3.72;;;2.10;;
56073;SDS011;41950;55.840;37.442;2023-03-19T08:01:43;4.13;;;2.53;;
56073;SDS011;41950;55.840;37.442;2023-03-19T08:04:08;4.47;;;2.67;;
56073;SDS011;41950;55.840;37.442;2023-03-19T08:06:34;5.88;;;2.50;;
56073;SDS011;41950;55.840;37.442;2023-03-19T08:08:59;4.43;;;2.15;;
56073;SDS011;41950;55.840;37.442;2023-03-19T08:11:25;4.85;;;2.47;;
56073;SDS011;41950;55.840;37.442;2023-03-19T08:13:51;4.88;;;2.70;;
56073;SDS011;41950;55.840;37.442;2023-03-19T08:16:16;5.47;;;2.58;;
56073;SDS011;41950;55.840;37.442;2023-03-19T08:18:42;5.65;;;2.50;;
56073;SDS011;41950;55.840;37.442;2023-03-19T08:21:08;5.55;;;2.63;;
56073;SDS011;41950;55.840;37.442;2023-03-19T08:23:33;4.85;;;2.35;;
56073;SDS011;41950;55.840;37.442;2023-03-19T08:25:59;6.70;;;2.90;;
56073;SDS011;41950;55.840;37.442;2023-03-19T08:28:25;5.68;;;3.40;;
56073;SDS011;41950;55.840;37.442;2023-03-19T08:30:51;5.85;;;3.30;;
56073;SDS011;41950;55.840;37.442;2023-03-19T08:33:16;6.70;;;3.30;;
56073;SDS011;41950;55.840;37.442;2023-03-19T08:35:42;5.28;;;3.08;;
56073;SDS011;41950;55.840;37.442;2023-03-19T08:38:08;5.47;;;3.22;;
56073;SDS011;41950;55.840;37.442;2023-03-19T08:40:34;6.63;;;3.25;;
56073;SDS011;41950;55.840;37.442;2023-03-19T08:42:59;5.50;;;3.03;;
56073;SDS011;41950;55.840;37.442;2023-03-19T08:45:25;4.57;;;2.97;;
56073;SDS011;41950;55.840;37.442;2023-03-19T08:47:51;4.70;;;3.38;;
56073;SDS011;41950;55.840;37.442;2023-03-19T08:50:17;5.22;;;3.30;;
56073;SDS011;41950;55.840;37.442;2023-03-19T08:52:43;7.20;;;3.42;;
56073;SDS011;41950;55.840;37.442;2023-03-19T08:55:09;7.18;;;3.08;;
56073;SDS011;41950;55.840;37.442;2023-03-19T08:57:35;5.35;;;3.10;;
56073;SDS011;41950;55.840;37.442;2023-03-19T09:00:02;5.28;;;3.17;;
56073;SDS011;41950;55.840;37.442;2023-03-19T09:02:30;5.22;;;2.90;;
56073;SDS011;41950;55.840;37.442;2023-03-19T09:04:56;4.57;;;3.03;;
56073;SDS011;41950;55.840;37.442;2023-03-19T09:07:21;7.18;;;2.60;;
56073;SDS011;41950;55.840;37.442;2023-03-19T09:09:47;6.43;;;2.70;;
56073;SDS011;41950;55.840;37.442;2023-03-19T09:12:14;8.50;;;3.60;;
56073;SDS011;41950;55.840;37.442;2023-03-19T09:14:41;8.80;;;3.22;;
56073;SDS011;41950;55.840;37.442;2023-03-19T09:17:08;6.93;;;3.33;;
56073;SDS011;41950;55.840;37.442;2023-03-19T09:19:34;6.53;;;3.40;;
56073;SDS011;41950;55.840;37.442;2023-03-19T09:22:01;8.82;;;3.97;;
56073;SDS011;41950;55.840;37.442;2023-03-19T09:24:27;7.25;;;3.63;;
56073;SDS011;41950;55.840;37.442;2023-03-19T09:26:53;7.35;;;3.70;;
56073;SDS011;41950;55.840;37.442;2023-03-19T09:29:18;7.80;;;3.67;;
56073;SDS011;41950;55.840;37.442;2023-03-19T09:31:44;6.38;;;3.58;;
56073;SDS011;41950;55.840;37.442;2023-03-19T09:34:10;5.30;;;3.35;;
56073;SDS011;41950;55.840;37.442;2023-03-19T09:36:38;6.50;;;3.35;;
56073;SDS011;41950;55.840;37.442;2023-03-19T09:39:04;8.48;;;3.42;;
56073;SDS011;41950;55.840;37.442;2023-03-19T09:49:27;7.47;;;3.53;;
56073;SDS011;41950;55.840;37.442;2023-03-19T09:55:23;6.93;;;3.20;;
56073;SDS011;41950;55.840;37.442;2023-03-19T09:57:49;7.32;;;3.20;;
56073;SDS011;41950;55.840;37.442;2023-03-19T10:00:27;8.65;;;2.95;;
56073;SDS011;41950;55.840;37.442;2023-03-19T10:03:00;7.25;;;2.83;;
56073;SDS011;41950;55.840;37.442;2023-03-19T10:05:31;5.90;;;2.88;;
56073;SDS011;41950;55.840;37.442;2023-03-19T10:15:54;5.32;;;3.08;;
56073;SDS011;41950;55.840;37.442;2023-03-19T10:18:25;5.97;;;3.20;;
56073;SDS011;41950;55.840;37.442;2023-03-19T10:21:02;7.45;;;3.60;;
56073;SDS011;41950;55.840;37.442;2023-03-19T10:26:29;7.78;;;4.85;;
56073;SDS011;41950;55.840;37.442;2023-03-19T10:29:03;8.07;;;5.32;;
56073;SDS011;41950;55.840;37.442;2023-03-19T10:31:51;6.22;;;3.50;;
56073;SDS011;41950;55.840;37.442;2023-03-19T10:34:35;4.93;;;2.97;;
56073;SDS011;41950;55.840;37.442;2023-03-19T10:37:11;6.40;;;3.38;;
56073;SDS011;41950;55.840;37.442;2023-03-19T10:39:41;7.63;;;3.78;;
56073;SDS011;41950;55.840;37.442;2023-03-19T10:47:38;7.47;;;4.25;;
56073;SDS011;41950;55.840;37.442;2023-03-19T10:50:05;6.18;;;3.70;;
56073;SDS011;41950;55.840;37.442;2023-03-19T10:52:36;6.65;;;4.10;;
56073;SDS011;41950;55.840;37.442;2023-03-19T10:55:12;7.38;;;4.57;;
56073;SDS011;41950;55.840;37.442;2023-03-19T10:57:41;5.45;;;3.88;;
56073;SDS011;41950;55.840;37.442;2023-03-19T11:00:14;8.43;;;4.28;;
56073;SDS011;41950;55.840;37.442;2023-03-19T11:02:47;8.65;;;4.85;;
56073;SDS011;41950;55.840;37.442;2023-03-19T11:07:44;7.78;;;4.15;;
56073;SDS011;41950;55.840;37.442;2023-03-19T11:10:15;5.85;;;3.97;;
56073;SDS011;41950;55.840;37.442;2023-03-19T11:12:45;6.80;;;4.15;;
56073;SDS011;41950;55.840;37.442;2023-03-19T11:15:19;6.70;;;3.95;;
56073;SDS011;41950;55.840;37.442;2023-03-19T11:17:47;8.25;;;4.75;;
56073;SDS011;41950;55.840;37.442;2023-03-19T11:20:21;6.70;;;4.57;;
56073;SDS011;41950;55.840;37.442;2023-03-19T11:22:51;6.93;;;4.93;;
56073;SDS011;41950;55.840;37.442;2023-03-19T11:25:24;7.18;;;4.68;;
56073;SDS011;41950;55.840;37.442;2023-03-19T11:28:06;7.20;;;4.43;;
56073;SDS011;41950;55.840;37.442;2023-03-19T11:36:09;10.18;;;4.70;;
56073;SDS011;41950;55.840;37.442;2023-03-19T11:38:48;7.25;;;4.60;;
56073;SDS011;41950;55.840;37.442;2023-03-19T11:41:26;7.13;;;4.60;;
56073;SDS011;41950;55.840;37.442;2023-03-19T11:44:05;9.00;;;4.10;;
56073;SDS011;41950;55.840;37.442;2023-03-19T11:52:11;7.25;;;4.32;;
56073;SDS011;41950;55.840;37.442;2023-03-19T12:06:00;6.07;;;4.40;;
56073;SDS011;41950;55.840;37.442;2023-03-19T12:08:36;5.22;;;3.75;;
56073;SDS011;41950;55.840;37.442;2023-03-19T12:11:09;5.80;;;4.47;;
56073;SDS011;41950;55.840;37.442;2023-03-19T12:21:52;7.68;;;3.83;;
56073;SDS011;41950;55.840;37.442;2023-03-19T12:24:42;5.45;;;3.20;;
56073;SDS011;41950;55.840;37.442;2023-03-19T12:27:17;4.47;;;3.03;;
56073;SDS011;41950;55.840;37.442;2023-03-19T12:32:59;5.30;;;3.67;;
56073;SDS011;41950;55.840;37.442;2023-03-19T12:35:38;5.15;;;3.70;;
56073;SDS011;41950;55.840;37.442;2023-03-19T12:40:57;6.70;;;4.00;;
56073;SDS011;41950;55.840;37.442;2023-03-19T12:43:35;6.00;;;3.83;;
56073;SDS011;41950;55.840;37.442;2023-03-19T12:48:55;6.47;;;4.28;;
56073;SDS011;41950;55.840;37.442;2023-03-19T12:51:27;7.55;;;4.22;;
56073;SDS011;41950;55.840;37.442;2023-03-19T12:53:59;6.38;;;4.35;;
56073;SDS011;41950;55.840;37.442;2023-03-19T12:59:15;6.05;;;3.92;;
56073;SDS011;41950;55.840;37.442;2023-03-19T13:10:37;6.55;;;4.40;;
56073;SDS011;41950;55.840;37.442;2023-03-19T13:15:51;7.47;;;4.50;;
56073;SDS011;41950;55.840;37.442;2023-03-19T13:21:21;7.45;;;4.35;;
56073;SDS011;41950;55.840;37.442;2023-03-19T13:24:03;7.20;;;4.93;;
56073;SDS011;41950;55.840;37.442;2023-03-19T13:26:45;9.52;;;5.82;;
56073;SDS011;41950;55.840;37.442;2023-03-19T13:31:46;7.53;;;5.53;;
56073;SDS011;41950;55.840;37.442;2023-03-19T13:36:41;9.43;;;5.30;;
56073;SDS011;41950;55.840;37.442;2023-03-19T13:39:29;8.73;;;5.57;;
56073;SDS011;41950;55.840;37.442;2023-03-19T13:48:15;9.07;;;5.60;;
56073;SDS011;41950;55.840;37.442;2023-03-19T13:50:53;8.07;;;5.47;;
56073;SDS011;41950;55.840;37.442;2023-03-19T13:56:05;7.97;;;6.03;;
56073;SDS011;41950;55.840;37.442;2023-03-19T13:58:50;7.20;;;5.88;;
56073;SDS011;41950;55.840;37.442;2023-03-19T14:08:59;8.20;;;6.15;;
56073;SDS011;41950;55.840;37.442;2023-03-19T14:11:30;8.90;;;5.95;;
56073;SDS011;41950;55.840;37.442;2023-03-19T14:14:04;7.03;;;5.50;;
56073;SDS011;41950;55.840;37.442;2023-03-19T14:16:36;7.97;;;6.10;;
56073;SDS011;41950;55.840;37.442;2023-03-19T14:19:10;10.00;;;6.22;;
56073;SDS011;41950;55.840;37.442;2023-03-19T14:21:41;6.88;;;5.78;;
56073;SDS011;41950;55.840;37.442;2023-03-19T14:27:16;8.15;;;5.63;;
56073;SDS011;41950;55.840;37.442;2023-03-19T14:29:46;8.52;;;5.78;;
56073;SDS011;41950;55.840;37.442;2023-03-19T14:32:17;8.20;;;5.88;;
56073;SDS011;41950;55.840;37.442;2023-03-19T14:34:48;8.15;;;5.68;;
56073;SDS011;41950;55.840;37.442;2023-03-19T14:39:51;8.90;;;6.13;;
56073;SDS011;41950;55.840;37.442;2023-03-19T14:48:15;10.38;;;6.28;;
56073;SDS011;41950;55.840;37.442;2023-03-19T14:51:02;9.77;;;5.53;;
56073;SDS011;41950;55.840;37.442;2023-03-19T14:53:38;8.73;;;5.75;;
56073;SDS011;41950;55.840;37.442;2023-03-19T14:56:53;8.98;;;5.68;;
56073;SDS011;41950;55.840;37.442;2023-03-19T14:59:00;7.80;;;5.65;;
56073;SDS011;41950;55.840;37.442;2023-03-19T15:01:30;8.23;;;5.38;;
56073;SDS011;41950;55.840;37.442;2023-03-19T15:03:59;7.75;;;5.57;;
56073;SDS011;41950;55.840;37.442;2023-03-19T15:06:32;7.70;;;5.35;;
56073;SDS011;41950;55.840;37.442;2023-03-19T15:09:06;8.85;;;6.05;;
56073;SDS011;41950;55.840;37.442;2023-03-19T15:19:50;9.30;;;5.75;;
56073;SDS011;41950;55.840;37.442;2023-03-19T15:22:19;9.00;;;5.78;;
56073;SDS011;41950;55.840;37.442;2023-03-19T15:24:54;12.70;;;6.65;;
56073;SDS011;41950;55.840;37.442;2023-03-19T15:27:30;7.93;;;5.82;;
56073;SDS011;41950;55.840;37.442;2023-03-19T15:29:56;7.95;;;5.82;;
56073;SDS011;41950;55.840;37.442;2023-03-19T15:32:35;8.65;;;5.40;;
56073;SDS011;41950;55.840;37.442;2023-03-19T15:35:03;9.38;;;6.05;;
56073;SDS011;41950;55.840;37.442;2023-03-19T15:37:30;9.55;;;6.22;;
56073;SDS011;41950;55.840;37.442;2023-03-19T15:40:02;8.93;;;5.72;;
56073;SDS011;41950;55.840;37.442;2023-03-19T15:42:34;9.13;;;6.05;;
56073;SDS011;41950;55.840;37.442;2023-03-19T15:47:32;9.02;;;5.65;;
56073;SDS011;41950;55.840;37.442;2023-03-19T15:50:11;9.10;;;5.72;;
56073;SDS011;41950;55.840;37.442;2023-03-19T15:52:44;8.77;;;5.38;;
56073;SDS011;41950;55.840;37.442;2023-03-19T15:55:15;8.77;;;6.10;;
56073;SDS011;41950;55.840;37.442;2023-03-19T15:57:41;8.02;;;5.20;;
56073;SDS011;41950;55.840;37.442;2023-03-19T16:00:08;7.95;;;5.95;;
56073;SDS011;41950;55.840;37.442;2023-03-19T16:02:38;7.80;;;5.30;;
56073;SDS011;41950;55.840;37.442;2023-03-19T16:05:06;9.00;;;5.63;;
56073;SDS011;41950;55.840;37.442;2023-03-19T16:07:48;6.70;;;5.32;;
56073;SDS011;41950;55.840;37.442;2023-03-19T16:10:31;7.57;;;5.78;;
56073;SDS011;41950;55.840;37.442;2023-03-19T16:13:02;10.25;;;6.03;;
56073;SDS011;41950;55.840;37.442;2023-03-19T16:15:46;10.25;;;6.45;;
56073;SDS011;41950;55.840;37.442;2023-03-19T16:21:04;8.95;;;5.93;;
56073;SDS011;41950;55.840;37.442;2023-03-19T16:23:39;9.63;;;5.68;;
56073;SDS011;41950;55.840;37.442;2023-03-19T16:26:15;9.55;;;5.60;;
56073;SDS011;41950;55.840;37.442;2023-03-19T16:28:51;10.45;;;6.30;;
56073;SDS011;41950;55.840;37.442;2023-03-19T16:31:24;9.68;;;6.25;;
56073;SDS011;41950;55.840;37.442;2023-03-19T16:33:53;13.98;;;8.80;;
56073;SDS011;41950;55.840;37.442;2023-03-19T16:36:19;12.25;;;5.38;;
56073;SDS011;41950;55.840;37.442;2023-03-19T16:38:53;10.20;;;5.70;;
56073;SDS011;41950;55.840;37.442;2023-03-19T16:41:30;10.23;;;5.68;;
56073;SDS011;41950;55.840;37.442;2023-03-19T16:44:17;8.55;;;5.97;;
56073;SDS011;41950;55.840;37.442;2023-03-19T16:46:43;9.68;;;6.03;;
56073;SDS011;41950;55.840;37.442;2023-03-19T16:49:09;9.00;;;5.50;;
56073;SDS011;41950;55.840;37.442;2023-03-19T16:51:35;10.95;;;5.47;;
56073;SDS011;41950;55.840;37.442;2023-03-19T16:54:01;10.25;;;5.97;;
56073;SDS011;41950;55.840;37.442;2023-03-19T16:56:27;8.82;;;6.07;;
56073;SDS011;41950;55.840;37.442;2023-03-19T16:58:54;10.80;;;5.88;;